sensor_id;sensor_type;location;lat;lon;timestamp;P1;durP1;ratioP1;P2;durP2;ratioP2
15293;SDS011;74171;52.534;13.436;2024-01-15T00:00:59;12.52;;;8.50;;
15293;SDS011;74171;52.534;13.436;2024-01-15T00:03:03;11.68;;;8.55;;
15293;SDS011;74171;52.534;13.436;2024-01-15T00:05:07;12.60;;;8.68;;
15293;SDS011;74171;52.534;13.436;2024-01-15T00:07:10;11.45;;;8.38;;
15293;SDS011;74171;52.534;13.436;2024-01-15T00:09:14;12.05;;;8.38;;
15293;SDS011;74171;52.534;13.436;2024-01-15T00:11:20;16.92;;;8.65;;
15293;SDS011;74171;52.534;13.436;2024-01-15T00:13:24;13.68;;;9.10;;
15293;SDS011;74171;52.534;13.436;2024-01-15T00:15:27;13.93;;;9.05;;
15293;SDS011;74171;52.534;13.436;2024-01-15T00:17:31;13.68;;;8.77;;
15293;SDS011;74171;52.534;13.436;2024-01-15T00:19:34;12.52;;;8.60;;
15293;SDS011;74171;52.534;13.436;2024-01-15T00:21:38;12.05;;;8.50;;
15293;SDS011;74171;52.534;13.436;2024-01-15T00:23:44;13.70;;;8.73;;
15293;SDS011;74171;52.534;13.436;2024-01-15T00:25:50;12.73;;;9.07;;
15293;SDS011;74171;52.534;13.436;2024-01-15T00:27:52;14.07;;;9.18;;
15293;SDS011;74171;52.534;13.436;2024-01-15T00:29:57;14.82;;;9.00;;
15293;SDS011;74171;52.534;13.436;2024-01-15T00:32:00;11.73;;;7.95;;
15293;SDS011;74171;52.534;13.436;2024-01-15T00:34:03;15.25;;;9.90;;
15293;SDS011;74171;52.534;13.436;2024-01-15T00:36:07;14.27;;;9.23;;
15293;SDS011;74171;52.534;13.436;2024-01-15T00:38:10;12.40;;;8.20;;
15293;SDS011;74171;52.534;13.436;2024-01-15T00:40:13;12.40;;;8.38;;
15293;SDS011;74171;52.534;13.436;2024-01-15T00:42:17;14.90;;;8.30;;
15293;SDS011;74171;52.534;13.436;2024-01-15T00:44:22;11.90;;;8.25;;
15293;SDS011;74171;52.534;13.436;2024-01-15T00:46:26;13.10;;;8.80;;
15293;SDS011;74171;52.534;13.436;2024-01-15T00:48:31;14.45;;;8.73;;
15293;SDS011;74171;52.534;13.436;2024-01-15T00:50:34;15.40;;;8.52;;
15293;SDS011;74171;52.534;13.436;2024-01-15T00:52:37;14.23;;;9.10;;
15293;SDS011;74171;52.534;13.436;2024-01-15T00:54:40;10.82;;;8.43;;
15293;SDS011;74171;52.534;13.436;2024-01-15T00:56:42;13.52;;;8.30;;
15293;SDS011;74171;52.534;13.436;2024-01-15T00:58:48;11.88;;;8.60;;
15293;SDS011;74171;52.534;13.436;2024-01-15T01:00:49;12.30;;;8.18;;
15293;SDS011;74171;52.534;13.436;2024-01-15T01:02:54;14.73;;;9.13;;
15293;SDS011;74171;52.534;13.436;2024-01-15T01:04:57;13.02;;;8.35;;
15293;SDS011;74171;52.534;13.436;2024-01-15T01:07:00;12.48;;;8.40;;
15293;SDS011;74171;52.534;13.436;2024-01-15T01:09:03;13.13;;;8.80;;
15293;SDS011;74171;52.534;13.436;2024-01-15T01:11:06;11.90;;;8.65;;
15293;SDS011;74171;52.534;13.436;2024-01-15T01:13:11;13.77;;;8.68;;
15293;SDS011;74171;52.534;13.436;2024-01-15T01:15:14;12.80;;;8.68;;
15293;SDS011;74171;52.534;13.436;2024-01-15T01:17:17;12.70;;;8.63;;
15293;SDS011;74171;52.534;13.436;2024-01-15T01:19:21;15.13;;;9.50;;
15293;SDS011;74171;52.534;13.436;2024-01-15T01:21:24;14.88;;;9.05;;
15293;SDS011;74171;52.534;13.436;2024-01-15T01:23:27;14.07;;;9.55;;
15293;SDS011;74171;52.534;13.436;2024-01-15T01:25:30;18.17;;;9.40;;
15293;SDS011;74171;52.534;13.436;2024-01-15T01:27:34;13.98;;;8.40;;
15293;SDS011;74171;52.534;13.436;2024-01-15T01:29:38;16.05;;;9.60;;
15293;SDS011;74171;52.534;13.436;2024-01-15T01:31:44;12.57;;;8.82;;
15293;SDS011;74171;52.534;13.436;2024-01-15T01:33:47;13.18;;;8.50;;
15293;SDS011;74171;52.534;13.436;2024-01-15T01:35:51;14.38;;;9.55;;
15293;SDS011;74171;52.534;13.436;2024-01-15T01:37:55;13.35;;;9.23;;
15293;SDS011;74171;52.534;13.436;2024-01-15T01:39:58;14.82;;;10.02;;
15293;SDS011;74171;52.534;13.436;2024-01-15T01:42:02;16.70;;;9.93;;
15293;SDS011;74171;52.534;13.436;2024-01-15T01:44:06;13.27;;;8.55;;
15293;SDS011;74171;52.534;13.436;2024-01-15T01:46:10;13.55;;;9.25;;
15293;SDS011;74171;52.534;13.436;2024-01-15T01:48:13;12.52;;;8.10;;
15293;SDS011;74171;52.534;13.436;2024-01-15T01:50:16;12.50;;;8.32;;
15293;SDS011;74171;52.534;13.436;2024-01-15T01:52:21;10.45;;;7.63;;
15293;SDS011;74171;52.534;13.436;2024-01-15T01:54:25;12.45;;;8.60;;
15293;SDS011;74171;52.534;13.436;2024-01-15T01:56:31;16.17;;;8.55;;
15293;SDS011;74171;52.534;13.436;2024-01-15T01:58:34;12.20;;;8.52;;
15293;SDS011;74171;52.534;13.436;2024-01-15T02:00:38;12.27;;;8.60;;
15293;SDS011;74171;52.534;13.436;2024-01-15T02:02:41;14.00;;;8.95;;
15293;SDS011;74171;52.534;13.436;2024-01-15T02:04:46;14.52;;;8.90;;
15293;SDS011;74171;52.534;13.436;2024-01-15T02:06:48;13.00;;;8.50;;
15293;SDS011;74171;52.534;13.436;2024-01-15T02:08:53;15.52;;;9.43;;
15293;SDS011;74171;52.534;13.436;2024-01-15T02:10:56;12.13;;;8.70;;
15293;SDS011;74171;52.534;13.436;2024-01-15T02:13:00;14.65;;;9.10;;
15293;SDS011;74171;52.534;13.436;2024-01-15T02:15:02;11.77;;;8.15;;
15293;SDS011;74171;52.534;13.436;2024-01-15T02:17:06;13.40;;;8.73;;
15293;SDS011;74171;52.534;13.436;2024-01-15T02:19:14;16.75;;;8.95;;
15293;SDS011;74171;52.534;13.436;2024-01-15T02:21:19;14.70;;;7.65;;
15293;SDS011;74171;52.534;13.436;2024-01-15T02:23:23;13.93;;;8.27;;
15293;SDS011;74171;52.534;13.436;2024-01-15T02:25:26;11.73;;;8.50;;
15293;SDS011;74171;52.534;13.436;2024-01-15T02:27:28;11.88;;;7.88;;
15293;SDS011;74171;52.534;13.436;2024-01-15T02:29:31;13.65;;;8.52;;
15293;SDS011;74171;52.534;13.436;2024-01-15T02:31:34;14.85;;;9.05;;
15293;SDS011;74171;52.534;13.436;2024-01-15T02:33:36;13.45;;;7.75;;
15293;SDS011;74171;52.534;13.436;2024-01-15T02:35:40;13.50;;;8.20;;
15293;SDS011;74171;52.534;13.436;2024-01-15T02:37:44;13.18;;;7.75;;
15293;SDS011;74171;52.534;13.436;2024-01-15T02:39:47;16.63;;;6.93;;
15293;SDS011;74171;52.534;13.436;2024-01-15T02:41:52;10.90;;;6.63;;
15293;SDS011;74171;52.534;13.436;2024-01-15T02:43:57;9.20;;;6.72;;
15293;SDS011;74171;52.534;13.436;2024-01-15T02:46:00;10.27;;;6.53;;
15293;SDS011;74171;52.534;13.436;2024-01-15T02:48:03;11.48;;;7.18;;
15293;SDS011;74171;52.534;13.436;2024-01-15T02:50:06;12.13;;;6.95;;
15293;SDS011;74171;52.534;13.436;2024-01-15T02:52:10;9.93;;;6.22;;
15293;SDS011;74171;52.534;13.436;2024-01-15T02:54:13;12.20;;;7.40;;
15293;SDS011;74171;52.534;13.436;2024-01-15T02:56:17;12.20;;;6.50;;
15293;SDS011;74171;52.534;13.436;2024-01-15T02:58:20;14.98;;;6.57;;
15293;SDS011;74171;52.534;13.436;2024-01-15T03:00:23;11.82;;;6.90;;
15293;SDS011;74171;52.534;13.436;2024-01-15T03:02:26;13.02;;;7.45;;
15293;SDS011;74171;52.534;13.436;2024-01-15T03:04:29;11.30;;;6.45;;
15293;SDS011;74171;52.534;13.436;2024-01-15T03:06:32;13.27;;;6.28;;
15293;SDS011;74171;52.534;13.436;2024-01-15T03:08:34;14.05;;;7.30;;
15293;SDS011;74171;52.534;13.436;2024-01-15T03:10:37;12.95;;;8.15;;
15293;SDS011;74171;52.534;13.436;2024-01-15T03:12:42;14.27;;;7.43;;
15293;SDS011;74171;52.534;13.436;2024-01-15T03:14:44;11.65;;;7.05;;
15293;SDS011;74171;52.534;13.436;2024-01-15T03:16:49;12.45;;;6.15;;
15293;SDS011;74171;52.534;13.436;2024-01-15T03:18:52;13.77;;;6.18;;
15293;SDS011;74171;52.534;13.436;2024-01-15T03:20:54;11.70;;;6.68;;
15293;SDS011;74171;52.534;13.436;2024-01-15T03:22:57;11.88;;;6.05;;
15293;SDS011;74171;52.534;13.436;2024-01-15T03:25:00;10.13;;;5.82;;
15293;SDS011;74171;52.534;13.436;2024-01-15T03:27:03;10.55;;;6.18;;
15293;SDS011;74171;52.534;13.436;2024-01-15T03:29:08;8.90;;;5.47;;
15293;SDS011;74171;52.534;13.436;2024-01-15T03:31:11;11.27;;;6.85;;
15293;SDS011;74171;52.534;13.436;2024-01-15T03:33:14;10.73;;;6.78;;
15293;SDS011;74171;52.534;13.436;2024-01-15T03:35:17;10.18;;;5.82;;
15293;SDS011;74171;52.534;13.436;2024-01-15T03:37:22;9.70;;;5.70;;
15293;SDS011;74171;52.534;13.436;2024-01-15T03:39:26;9.13;;;6.00;;
15293;SDS011;74171;52.534;13.436;2024-01-15T03:41:29;9.85;;;6.10;;
15293;SDS011;74171;52.534;13.436;2024-01-15T03:43:32;12.07;;;6.10;;
15293;SDS011;74171;52.534;13.436;2024-01-15T03:45:36;9.90;;;6.53;;
15293;SDS011;74171;52.534;13.436;2024-01-15T03:47:39;11.18;;;5.05;;
15293;SDS011;74171;52.534;13.436;2024-01-15T03:49:43;10.57;;;5.60;;
15293;SDS011;74171;52.534;13.436;2024-01-15T03:51:46;9.73;;;5.63;;
15293;SDS011;74171;52.534;13.436;2024-01-15T03:53:49;7.72;;;5.70;;
15293;SDS011;74171;52.534;13.436;2024-01-15T03:55:51;8.90;;;6.20;;
15293;SDS011;74171;52.534;13.436;2024-01-15T03:57:54;11.45;;;6.05;;
15293;SDS011;74171;52.534;13.436;2024-01-15T04:00:00;10.10;;;6.10;;
15293;SDS011;74171;52.534;13.436;2024-01-15T04:02:04;15.50;;;5.80;;
15293;SDS011;74171;52.534;13.436;2024-01-15T04:04:07;10.00;;;5.53;;
15293;SDS011;74171;52.534;13.436;2024-01-15T04:06:09;9.43;;;5.78;;
15293;SDS011;74171;52.534;13.436;2024-01-15T04:08:13;10.50;;;6.13;;
15293;SDS011;74171;52.534;13.436;2024-01-15T04:10:15;12.15;;;6.05;;
15293;SDS011;74171;52.534;13.436;2024-01-15T04:12:18;7.93;;;4.90;;
15293;SDS011;74171;52.534;13.436;2024-01-15T04:14:21;11.60;;;5.78;;
15293;SDS011;74171;52.534;13.436;2024-01-15T04:16:24;9.55;;;5.72;;
15293;SDS011;74171;52.534;13.436;2024-01-15T04:18:28;11.80;;;5.20;;
15293;SDS011;74171;52.534;13.436;2024-01-15T04:20:31;8.48;;;4.85;;
15293;SDS011;74171;52.534;13.436;2024-01-15T04:22:35;12.45;;;4.80;;
15293;SDS011;74171;52.534;13.436;2024-01-15T04:24:40;8.40;;;4.63;;
15293;SDS011;74171;52.534;13.436;2024-01-15T04:26:43;7.95;;;4.30;;
15293;SDS011;74171;52.534;13.436;2024-01-15T04:28:47;9.65;;;5.55;;
15293;SDS011;74171;52.534;13.436;2024-01-15T04:30:50;10.32;;;5.53;;
15293;SDS011;74171;52.534;13.436;2024-01-15T04:32:54;8.30;;;4.70;;
15293;SDS011;74171;52.534;13.436;2024-01-15T04:34:58;11.40;;;5.25;;
15293;SDS011;74171;52.534;13.436;2024-01-15T04:37:02;8.15;;;4.70;;
15293;SDS011;74171;52.534;13.436;2024-01-15T04:39:06;9.55;;;4.63;;
15293;SDS011;74171;52.534;13.436;2024-01-15T04:41:10;8.50;;;4.93;;
15293;SDS011;74171;52.534;13.436;2024-01-15T04:43:14;11.10;;;4.95;;
15293;SDS011;74171;52.534;13.436;2024-01-15T04:45:17;6.82;;;4.53;;
15293;SDS011;74171;52.534;13.436;2024-01-15T04:47:21;6.72;;;4.50;;
15293;SDS011;74171;52.534;13.436;2024-01-15T04:49:24;10.02;;;4.03;;
15293;SDS011;74171;52.534;13.436;2024-01-15T04:51:29;9.88;;;4.18;;
15293;SDS011;74171;52.534;13.436;2024-01-15T04:53:32;10.35;;;4.20;;
15293;SDS011;74171;52.534;13.436;2024-01-15T04:55:35;7.35;;;3.90;;
15293;SDS011;74171;52.534;13.436;2024-01-15T04:57:38;9.73;;;4.20;;
15293;SDS011;74171;52.534;13.436;2024-01-15T04:59:43;14.35;;;4.25;;
15293;SDS011;74171;52.534;13.436;2024-01-15T05:01:47;7.72;;;4.30;;
15293;SDS011;74171;52.534;13.436;2024-01-15T05:03:51;7.32;;;3.92;;
15293;SDS011;74171;52.534;13.436;2024-01-15T05:05:57;6.68;;;3.83;;
15293;SDS011;74171;52.534;13.436;2024-01-15T05:08:02;8.48;;;4.40;;
15293;SDS011;74171;52.534;13.436;2024-01-15T05:10:05;5.93;;;3.60;;
15293;SDS011;74171;52.534;13.436;2024-01-15T05:12:12;7.03;;;3.88;;
15293;SDS011;74171;52.534;13.436;2024-01-15T05:14:15;8.02;;;4.07;;
15293;SDS011;74171;52.534;13.436;2024-01-15T05:16:18;9.00;;;3.58;;
15293;SDS011;74171;52.534;13.436;2024-01-15T05:18:21;7.30;;;3.47;;
15293;SDS011;74171;52.534;13.436;2024-01-15T05:20:23;4.70;;;3.25;;
15293;SDS011;74171;52.534;13.436;2024-01-15T05:22:26;6.13;;;3.15;;
15293;SDS011;74171;52.534;13.436;2024-01-15T05:24:32;8.57;;;3.70;;
15293;SDS011;74171;52.534;13.436;2024-01-15T05:26:34;8.15;;;3.20;;
15293;SDS011;74171;52.534;13.436;2024-01-15T05:28:37;8.43;;;3.15;;
15293;SDS011;74171;52.534;13.436;2024-01-15T05:30:40;8.13;;;4.05;;
15293;SDS011;74171;52.534;13.436;2024-01-15T05:32:43;9.30;;;2.92;;
15293;SDS011;74171;52.534;13.436;2024-01-15T05:34:47;9.55;;;3.05;;
15293;SDS011;74171;52.534;13.436;2024-01-15T05:36:50;10.60;;;3.47;;
15293;SDS011;74171;52.534;13.436;2024-01-15T05:38:53;9.95;;;3.35;;
15293;SDS011;74171;52.534;13.436;2024-01-15T05:40:58;7.40;;;3.17;;
15293;SDS011;74171;52.534;13.436;2024-01-15T05:43:02;6.05;;;3.67;;
15293;SDS011;74171;52.534;13.436;2024-01-15T05:45:04;7.10;;;2.85;;
15293;SDS011;74171;52.534;13.436;2024-01-15T05:47:08;6.00;;;2.42;;
15293;SDS011;74171;52.534;13.436;2024-01-15T05:49:11;5.18;;;2.92;;
15293;SDS011;74171;52.534;13.436;2024-01-15T05:51:15;7.20;;;2.65;;
15293;SDS011;74171;52.534;13.436;2024-01-15T05:53:19;9.07;;;2.83;;
15293;SDS011;74171;52.534;13.436;2024-01-15T05:55:22;6.30;;;3.75;;
15293;SDS011;74171;52.534;13.436;2024-01-15T05:57:26;5.28;;;2.83;;
15293;SDS011;74171;52.534;13.436;2024-01-15T05:59:29;8.55;;;2.70;;
15293;SDS011;74171;52.534;13.436;2024-01-15T06:01:34;7.55;;;2.85;;
15293;SDS011;74171;52.534;13.436;2024-01-15T06:03:38;8.38;;;3.72;;
15293;SDS011;74171;52.534;13.436;2024-01-15T06:05:41;7.93;;;3.17;;
15293;SDS011;74171;52.534;13.436;2024-01-15T06:07:44;8.27;;;3.05;;
15293;SDS011;74171;52.534;13.436;2024-01-15T06:09:47;13.95;;;3.05;;
15293;SDS011;74171;52.534;13.436;2024-01-15T06:11:50;8.27;;;3.08;;
15293;SDS011;74171;52.534;13.436;2024-01-15T06:13:54;7.43;;;2.90;;
15293;SDS011;74171;52.534;13.436;2024-01-15T06:15:58;5.68;;;2.80;;
15293;SDS011;74171;52.534;13.436;2024-01-15T06:18:07;4.90;;;2.70;;
15293;SDS011;74171;52.534;13.436;2024-01-15T06:20:13;7.20;;;2.55;;
15293;SDS011;74171;52.534;13.436;2024-01-15T06:22:17;8.85;;;2.80;;
15293;SDS011;74171;52.534;13.436;2024-01-15T06:24:19;5.88;;;3.00;;
15293;SDS011;74171;52.534;13.436;2024-01-15T06:26:22;12.50;;;2.80;;
15293;SDS011;74171;52.534;13.436;2024-01-15T06:28:26;9.77;;;2.70;;
15293;SDS011;74171;52.534;13.436;2024-01-15T06:30:30;6.35;;;3.10;;
15293;SDS011;74171;52.534;13.436;2024-01-15T06:32:33;9.90;;;3.15;;
15293;SDS011;74171;52.534;13.436;2024-01-15T06:34:37;5.50;;;2.67;;
15293;SDS011;74171;52.534;13.436;2024-01-15T06:36:58;4.88;;;2.78;;
15293;SDS011;74171;52.534;13.436;2024-01-15T06:39:01;7.85;;;2.75;;
15293;SDS011;74171;52.534;13.436;2024-01-15T06:41:08;7.43;;;2.70;;
15293;SDS011;74171;52.534;13.436;2024-01-15T06:43:11;6.57;;;2.70;;
15293;SDS011;74171;52.534;13.436;2024-01-15T06:45:15;9.40;;;2.92;;
15293;SDS011;74171;52.534;13.436;2024-01-15T06:47:31;13.10;;;3.47;;
15293;SDS011;74171;52.534;13.436;2024-01-15T06:49:37;7.43;;;3.22;;
15293;SDS011;74171;52.534;13.436;2024-01-15T06:51:40;9.77;;;3.33;;
15293;SDS011;74171;52.534;13.436;2024-01-15T06:53:45;6.38;;;2.92;;
15293;SDS011;74171;52.534;13.436;2024-01-15T06:55:48;7.55;;;2.65;;
15293;SDS011;74171;52.534;13.436;2024-01-15T06:57:52;8.73;;;3.38;;
15293;SDS011;74171;52.534;13.436;2024-01-15T06:59:55;4.60;;;2.13;;
15293;SDS011;74171;52.534;13.436;2024-01-15T07:01:59;9.77;;;3.05;;
15293;SDS011;74171;52.534;13.436;2024-01-15T07:04:05;8.00;;;2.65;;
15293;SDS011;74171;52.534;13.436;2024-01-15T07:06:10;6.80;;;2.75;;
15293;SDS011;74171;52.534;13.436;2024-01-15T07:08:16;12.05;;;3.47;;
15293;SDS011;74171;52.534;13.436;2024-01-15T07:10:19;4.70;;;2.80;;
15293;SDS011;74171;52.534;13.436;2024-01-15T07:12:23;9.32;;;2.95;;
15293;SDS011;74171;52.534;13.436;2024-01-15T07:14:28;11.70;;;3.10;;
15293;SDS011;74171;52.534;13.436;2024-01-15T07:16:31;13.32;;;3.20;;
15293;SDS011;74171;52.534;13.436;2024-01-15T07:18:39;8.98;;;3.80;;
15293;SDS011;74171;52.534;13.436;2024-01-15T07:20:46;7.90;;;3.17;;
15293;SDS011;74171;52.534;13.436;2024-01-15T07:22:50;7.43;;;2.72;;
15293;SDS011;74171;52.534;13.436;2024-01-15T07:24:53;8.77;;;2.95;;
15293;SDS011;74171;52.534;13.436;2024-01-15T07:26:57;8.25;;;2.45;;
15293;SDS011;74171;52.534;13.436;2024-01-15T07:29:00;11.23;;;2.67;;
15293;SDS011;74171;52.534;13.436;2024-01-15T07:31:03;12.85;;;2.97;;
15293;SDS011;74171;52.534;13.436;2024-01-15T07:33:05;11.20;;;3.50;;
15293;SDS011;74171;52.534;13.436;2024-01-15T07:35:10;8.00;;;3.05;;
15293;SDS011;74171;52.534;13.436;2024-01-15T07:37:14;6.18;;;2.65;;
15293;SDS011;74171;52.534;13.436;2024-01-15T07:39:17;13.70;;;3.63;;
15293;SDS011;74171;52.534;13.436;2024-01-15T07:41:20;6.32;;;2.80;;
15293;SDS011;74171;52.534;13.436;2024-01-15T07:43:23;5.47;;;2.85;;
15293;SDS011;74171;52.534;13.436;2024-01-15T07:45:25;7.70;;;2.67;;
15293;SDS011;74171;52.534;13.436;2024-01-15T07:47:28;8.98;;;3.08;;
15293;SDS011;74171;52.534;13.436;2024-01-15T07:49:32;7.55;;;2.70;;
15293;SDS011;74171;52.534;13.436;2024-01-15T07:51:36;13.25;;;3.45;;
15293;SDS011;74171;52.534;13.436;2024-01-15T07:53:43;8.05;;;2.88;;
15293;SDS011;74171;52.534;13.436;2024-01-15T07:55:46;10.50;;;3.05;;
15293;SDS011;74171;52.534;13.436;2024-01-15T07:57:49;10.20;;;3.08;;
15293;SDS011;74171;52.534;13.436;2024-01-15T08:00:06;7.43;;;2.60;;
15293;SDS011;74171;52.534;13.436;2024-01-15T08:02:12;7.82;;;2.80;;
15293;SDS011;74171;52.534;13.436;2024-01-15T08:04:15;9.55;;;3.63;;
15293;SDS011;74171;52.534;13.436;2024-01-15T08:06:17;10.35;;;2.80;;
15293;SDS011;74171;52.534;13.436;2024-01-15T08:08:20;11.68;;;3.65;;
15293;SDS011;74171;52.534;13.436;2024-01-15T08:10:25;8.18;;;2.70;;
15293;SDS011;74171;52.534;13.436;2024-01-15T08:12:31;9.52;;;2.40;;
15293;SDS011;74171;52.534;13.436;2024-01-15T08:14:36;6.75;;;2.67;;
15293;SDS011;74171;52.534;13.436;2024-01-15T08:16:40;8.30;;;2.78;;
15293;SDS011;74171;52.534;13.436;2024-01-15T08:18:44;9.50;;;2.67;;
15293;SDS011;74171;52.534;13.436;2024-01-15T08:20:49;7.97;;;2.35;;
15293;SDS011;74171;52.534;13.436;2024-01-15T08:22:53;7.80;;;3.00;;
15293;SDS011;74171;52.534;13.436;2024-01-15T08:24:56;8.43;;;2.33;;
15293;SDS011;74171;52.534;13.436;2024-01-15T08:27:00;9.10;;;3.33;;
15293;SDS011;74171;52.534;13.436;2024-01-15T08:29:03;8.35;;;2.47;;
15293;SDS011;74171;52.534;13.436;2024-01-15T08:31:07;8.18;;;2.72;;
15293;SDS011;74171;52.534;13.436;2024-01-15T08:33:09;9.23;;;3.58;;
15293;SDS011;74171;52.534;13.436;2024-01-15T08:35:22;8.32;;;3.47;;
15293;SDS011;74171;52.534;13.436;2024-01-15T08:37:26;10.63;;;3.10;;
15293;SDS011;74171;52.534;13.436;2024-01-15T08:39:28;6.45;;;2.80;;
15293;SDS011;74171;52.534;13.436;2024-01-15T08:41:32;10.80;;;4.00;;
15293;SDS011;74171;52.534;13.436;2024-01-15T08:43:37;13.68;;;3.10;;
15293;SDS011;74171;52.534;13.436;2024-01-15T08:45:41;8.23;;;2.58;;
15293;SDS011;74171;52.534;13.436;2024-01-15T08:47:44;10.77;;;2.78;;
15293;SDS011;74171;52.534;13.436;2024-01-15T08:49:46;6.95;;;2.22;;
15293;SDS011;74171;52.534;13.436;2024-01-15T08:51:49;11.23;;;3.22;;
15293;SDS011;74171;52.534;13.436;2024-01-15T08:53:54;6.00;;;2.55;;
15293;SDS011;74171;52.534;13.436;2024-01-15T08:55:57;11.73;;;3.50;;
15293;SDS011;74171;52.534;13.436;2024-01-15T08:58:00;6.93;;;2.78;;
15293;SDS011;74171;52.534;13.436;2024-01-15T09:00:05;12.77;;;3.53;;
15293;SDS011;74171;52.534;13.436;2024-01-15T09:02:10;6.38;;;2.55;;
15293;SDS011;74171;52.534;13.436;2024-01-15T09:04:13;7.60;;;2.45;;
15293;SDS011;74171;52.534;13.436;2024-01-15T09:06:16;7.70;;;2.45;;
15293;SDS011;74171;52.534;13.436;2024-01-15T09:08:18;10.27;;;2.72;;
15293;SDS011;74171;52.534;13.436;2024-01-15T09:10:20;8.35;;;2.47;;
15293;SDS011;74171;52.534;13.436;2024-01-15T09:12:23;8.73;;;3.22;;
15293;SDS011;74171;52.534;13.436;2024-01-15T09:14:28;9.05;;;2.75;;
15293;SDS011;74171;52.534;13.436;2024-01-15T09:16:39;11.40;;;3.30;;
15293;SDS011;74171;52.534;13.436;2024-01-15T09:18:59;7.72;;;3.38;;
15293;SDS011;74171;52.534;13.436;2024-01-15T09:21:03;9.23;;;3.17;;
15293;SDS011;74171;52.534;13.436;2024-01-15T09:23:06;9.57;;;2.78;;
15293;SDS011;74171;52.534;13.436;2024-01-15T09:25:09;12.60;;;3.03;;
15293;SDS011;74171;52.534;13.436;2024-01-15T09:27:11;9.15;;;2.33;;
15293;SDS011;74171;52.534;13.436;2024-01-15T09:29:15;13.60;;;3.22;;
15293;SDS011;74171;52.534;13.436;2024-01-15T09:31:19;18.52;;;7.65;;
15293;SDS011;74171;52.534;13.436;2024-01-15T09:33:24;7.68;;;3.20;;
15293;SDS011;74171;52.534;13.436;2024-01-15T09:35:27;4.72;;;2.30;;
15293;SDS011;74171;52.534;13.436;2024-01-15T09:37:30;11.57;;;3.15;;
15293;SDS011;74171;52.534;13.436;2024-01-15T09:39:47;7.85;;;2.20;;
15293;SDS011;74171;52.534;13.436;2024-01-15T09:41:52;4.28;;;2.80;;
15293;SDS011;74171;52.534;13.436;2024-01-15T09:43:57;6.20;;;2.55;;
15293;SDS011;74171;52.534;13.436;2024-01-15T09:46:00;8.23;;;2.67;;
15293;SDS011;74171;52.534;13.436;2024-01-15T09:48:04;5.75;;;2.55;;
15293;SDS011;74171;52.534;13.436;2024-01-15T09:50:10;9.57;;;2.42;;
15293;SDS011;74171;52.534;13.436;2024-01-15T09:52:13;4.40;;;2.08;;
15293;SDS011;74171;52.534;13.436;2024-01-15T09:54:18;11.02;;;2.90;;
15293;SDS011;74171;52.534;13.436;2024-01-15T09:56:21;6.90;;;2.50;;
15293;SDS011;74171;52.534;13.436;2024-01-15T09:58:24;7.80;;;2.47;;
15293;SDS011;74171;52.534;13.436;2024-01-15T10:00:26;8.45;;;2.88;;
15293;SDS011;74171;52.534;13.436;2024-01-15T10:02:30;6.75;;;2.53;;
15293;SDS011;74171;52.534;13.436;2024-01-15T10:04:33;7.30;;;2.50;;
15293;SDS011;74171;52.534;13.436;2024-01-15T10:06:37;4.57;;;2.35;;
15293;SDS011;74171;52.534;13.436;2024-01-15T10:08:42;7.45;;;2.22;;
15293;SDS011;74171;52.534;13.436;2024-01-15T10:10:47;7.72;;;3.45;;
15293;SDS011;74171;52.534;13.436;2024-01-15T10:12:50;7.38;;;2.92;;
15293;SDS011;74171;52.534;13.436;2024-01-15T10:14:53;6.78;;;3.05;;
15293;SDS011;74171;52.534;13.436;2024-01-15T10:16:57;6.57;;;3.58;;
15293;SDS011;74171;52.534;13.436;2024-01-15T10:19:00;5.68;;;2.65;;
15293;SDS011;74171;52.534;13.436;2024-01-15T10:21:02;5.03;;;2.75;;
15293;SDS011;74171;52.534;13.436;2024-01-15T10:23:07;4.80;;;2.47;;
15293;SDS011;74171;52.534;13.436;2024-01-15T10:25:12;5.07;;;2.70;;
15293;SDS011;74171;52.534;13.436;2024-01-15T10:27:14;6.38;;;2.35;;
15293;SDS011;74171;52.534;13.436;2024-01-15T10:29:20;4.53;;;2.45;;
15293;SDS011;74171;52.534;13.436;2024-01-15T10:31:22;5.75;;;2.42;;
15293;SDS011;74171;52.534;13.436;2024-01-15T10:33:30;7.95;;;2.72;;
15293;SDS011;74171;52.534;13.436;2024-01-15T10:35:35;6.70;;;2.30;;
15293;SDS011;74171;52.534;13.436;2024-01-15T10:37:41;10.43;;;3.38;;
15293;SDS011;74171;52.534;13.436;2024-01-15T10:39:47;8.68;;;2.83;;
15293;SDS011;74171;52.534;13.436;2024-01-15T10:41:50;5.00;;;2.50;;
15293;SDS011;74171;52.534;13.436;2024-01-15T10:43:53;7.05;;;3.20;;
15293;SDS011;74171;52.534;13.436;2024-01-15T10:45:56;7.70;;;2.83;;
15293;SDS011;74171;52.534;13.436;2024-01-15T10:48:01;9.95;;;3.20;;
15293;SDS011;74171;52.534;13.436;2024-01-15T10:50:06;8.63;;;3.00;;
15293;SDS011;74171;52.534;13.436;2024-01-15T10:52:10;3.72;;;2.30;;
15293;SDS011;74171;52.534;13.436;2024-01-15T10:54:13;5.90;;;2.60;;
15293;SDS011;74171;52.534;13.436;2024-01-15T10:56:18;4.40;;;2.38;;
15293;SDS011;74171;52.534;13.436;2024-01-15T10:58:21;5.57;;;2.58;;
15293;SDS011;74171;52.534;13.436;2024-01-15T11:00:24;5.70;;;1.90;;
15293;SDS011;74171;52.534;13.436;2024-01-15T11:02:28;4.70;;;2.97;;
15293;SDS011;74171;52.534;13.436;2024-01-15T11:04:32;3.10;;;1.85;;
15293;SDS011;74171;52.534;13.436;2024-01-15T11:06:42;6.47;;;2.15;;
15293;SDS011;74171;52.534;13.436;2024-01-15T11:08:46;6.78;;;2.38;;
15293;SDS011;74171;52.534;13.436;2024-01-15T11:10:51;3.20;;;2.13;;
15293;SDS011;74171;52.534;13.436;2024-01-15T11:12:57;3.00;;;2.30;;
15293;SDS011;74171;52.534;13.436;2024-01-15T11:15:03;3.30;;;2.10;;
15293;SDS011;74171;52.534;13.436;2024-01-15T11:17:10;4.10;;;2.05;;
15293;SDS011;74171;52.534;13.436;2024-01-15T11:19:12;3.88;;;1.70;;
15293;SDS011;74171;52.534;13.436;2024-01-15T11:21:25;7.30;;;2.28;;
15293;SDS011;74171;52.534;13.436;2024-01-15T11:23:41;4.25;;;1.80;;
15293;SDS011;74171;52.534;13.436;2024-01-15T11:25:43;3.22;;;1.83;;
15293;SDS011;74171;52.534;13.436;2024-01-15T11:27:47;4.63;;;2.20;;
15293;SDS011;74171;52.534;13.436;2024-01-15T11:30:03;3.67;;;2.17;;
15293;SDS011;74171;52.534;13.436;2024-01-15T11:32:08;2.28;;;1.52;;
15293;SDS011;74171;52.534;13.436;2024-01-15T11:34:14;1.80;;;1.63;;
15293;SDS011;74171;52.534;13.436;2024-01-15T11:36:16;1.80;;;1.40;;
15293;SDS011;74171;52.534;13.436;2024-01-15T11:38:28;1.77;;;1.42;;
15293;SDS011;74171;52.534;13.436;2024-01-15T11:40:38;4.25;;;1.90;;
15293;SDS011;74171;52.534;13.436;2024-01-15T11:42:40;6.57;;;2.38;;
15293;SDS011;74171;52.534;13.436;2024-01-15T11:44:43;4.32;;;1.98;;
15293;SDS011;74171;52.534;13.436;2024-01-15T11:46:49;2.75;;;1.70;;
15293;SDS011;74171;52.534;13.436;2024-01-15T11:49:03;2.97;;;1.88;;
15293;SDS011;74171;52.534;13.436;2024-01-15T11:51:07;3.38;;;2.20;;
15293;SDS011;74171;52.534;13.436;2024-01-15T11:53:13;4.07;;;2.30;;
15293;SDS011;74171;52.534;13.436;2024-01-15T11:55:19;4.55;;;1.80;;
15293;SDS011;74171;52.534;13.436;2024-01-15T11:57:25;2.63;;;1.67;;
15293;SDS011;74171;52.534;13.436;2024-01-15T11:59:34;3.25;;;2.15;;
15293;SDS011;74171;52.534;13.436;2024-01-15T12:01:37;3.30;;;2.45;;
15293;SDS011;74171;52.534;13.436;2024-01-15T12:03:41;2.75;;;1.90;;
15293;SDS011;74171;52.534;13.436;2024-01-15T12:05:44;3.90;;;2.33;;
15293;SDS011;74171;52.534;13.436;2024-01-15T12:07:48;7.85;;;2.88;;
15293;SDS011;74171;52.534;13.436;2024-01-15T12:09:52;3.28;;;2.08;;
15293;SDS011;74171;52.534;13.436;2024-01-15T12:11:57;4.72;;;2.30;;